createdAt,value
2023-02-19T00:00:39.033Z,77.12
2023-02-19T00:03:10.172Z,74.62
2023-02-19T00:05:41.142Z,76.02
2023-02-19T00:08:12.061Z,65.72
2023-02-19T00:10:43.099Z,62.70
2023-02-19T00:13:14.231Z,56.23
2023-02-19T00:15:45.222Z,63.52
2023-02-19T00:18:16.220Z,62.38
2023-02-19T00:20:47.143Z,60.67
2023-02-19T00:23:18.073Z,54.35
2023-02-19T00:25:49.022Z,60.23
2023-02-19T00:28:20.723Z,59.13
2023-02-19T00:30:52.231Z,56.13
2023-02-19T00:33:23.291Z,57.43
2023-02-19T00:35:54.320Z,58.35
2023-02-19T00:38:25.260Z,54.77
2023-02-19T00:40:56.210Z,53.05
2023-02-19T00:43:27.251Z,55.28
2023-02-19T00:45:58.204Z,49.77
2023-02-19T00:48:29.203Z,55.90
2023-02-19T00:51:00.201Z,47.17
2023-02-19T00:53:31.176Z,47.58
2023-02-19T00:56:02.104Z,44.77
2023-02-19T00:58:33.092Z,38.42
2023-02-19T01:01:04.395Z,40.60
2023-02-19T01:03:35.914Z,34.48
2023-02-19T01:06:07.984Z,35.80
2023-02-19T01:08:39.300Z,35.00
2023-02-19T01:11:11.667Z,33.25
2023-02-19T01:13:43.480Z,35.05
2023-02-19T01:16:22.966Z,32.67
2023-02-19T01:18:54.023Z,32.60
2023-02-19T01:21:27.495Z,34.18
2023-02-19T01:23:59.173Z,36.85
2023-02-19T01:26:34.890Z,32.95
2023-02-19T01:29:12.139Z,33.00
2023-02-19T01:31:38.899Z,36.77
2023-02-19T01:34:11.034Z,38.02
2023-02-19T01:36:42.027Z,36.15
2023-02-19T01:39:13.866Z,34.70
2023-02-19T01:41:56.507Z,35.35
2023-02-19T01:45:13.275Z,37.20
2023-02-19T01:47:27.267Z,28.67
2023-02-19T01:49:59.875Z,29.75
2023-02-19T01:52:40.429Z,25.97
2023-02-19T01:55:14.047Z,26.95
2023-02-19T01:57:51.874Z,24.07
2023-02-19T02:00:24.334Z,28.73
2023-02-19T02:02:57.324Z,24.35
2023-02-19T02:05:48.529Z,27.30
2023-02-19T02:08:38.670Z,20.50
2023-02-19T02:11:21.015Z,26.12
2023-02-19T02:13:52.595Z,22.73
2023-02-19T02:16:34.811Z,24.02
2023-02-19T02:19:14.097Z,30.70
2023-02-19T02:21:53.336Z,22.05
2023-02-19T02:24:32.567Z,21.20
2023-02-19T02:27:32.987Z,24.82
2023-02-19T02:30:28.361Z,22.77
2023-02-19T02:33:25.818Z,21.12
2023-02-19T02:35:59.206Z,19.10
2023-02-19T02:38:32.360Z,24.10
2023-02-19T02:41:06.508Z,21.25
2023-02-19T02:43:36.695Z,24.18
2023-02-19T02:46:07.662Z,21.68
2023-02-19T02:48:43.784Z,20.68
2023-02-19T02:51:23.124Z,28.20
2023-02-19T02:54:19.785Z,24.63
2023-02-19T02:56:52.367Z,29.12
2023-02-19T02:59:25.978Z,23.92
2023-02-19T03:02:15.404Z,22.35
2023-02-19T03:05:12.293Z,24.12
2023-02-19T03:08:02.357Z,25.57
2023-02-19T03:10:38.658Z,25.17
2023-02-19T03:13:29.820Z,24.65
2023-02-19T03:16:04.934Z,27.98
2023-02-19T03:18:55.774Z,30.45
2023-02-19T03:21:29.174Z,26.40
2023-02-19T03:24:19.368Z,29.98
2023-02-19T03:26:53.861Z,23.83
2023-02-19T03:29:29.460Z,26.68
2023-02-19T03:32:12.685Z,25.17
2023-02-19T03:34:44.033Z,22.32
2023-02-19T03:37:27.890Z,26.23
2023-02-19T03:40:00.683Z,23.67
2023-02-19T03:42:46.931Z,24.15
2023-02-19T03:45:26.801Z,22.32
2023-02-19T03:48:09.263Z,24.57
2023-02-19T03:50:54.788Z,24.77
2023-02-19T03:53:28.165Z,23.85
2023-02-19T03:56:32.424Z,22.60
2023-02-19T03:59:17.956Z,25.68
2023-02-19T04:01:51.436Z,24.25
2023-02-19T04:04:36.165Z,22.58
2023-02-19T04:07:07.404Z,21.93
2023-02-19T04:09:40.987Z,24.55
2023-02-19T04:12:13.786Z,19.77
2023-02-19T04:14:47.101Z,20.43
2023-02-19T04:17:23.690Z,25.17
2023-02-19T04:19:57.292Z,21.12
2023-02-19T04:22:28.901Z,21.15
2023-02-19T04:25:00.169Z,19.62
2023-02-19T04:27:32.154Z,21.10
2023-02-19T04:30:08.830Z,23.55
2023-02-19T04:35:10.228Z,20.90
2023-02-19T04:37:41.487Z,19.95
2023-02-19T04:40:13.615Z,18.82
2023-02-19T04:42:44.710Z,16.95
2023-02-19T04:45:16.297Z,16.40
2023-02-19T04:47:47.713Z,16.70
2023-02-19T04:50:23.833Z,18.40
2023-02-19T04:52:55.051Z,17.65
2023-02-19T04:55:26.628Z,16.12
2023-02-19T04:57:57.832Z,19.57
2023-02-19T05:00:33.604Z,17.70
2023-02-19T05:03:05.036Z,16.40
2023-02-19T05:05:39.660Z,16.52
2023-02-19T05:08:10.499Z,17.32
2023-02-19T05:10:41.832Z,19.37
2023-02-19T05:13:12.901Z,15.98
2023-02-19T05:15:45.346Z,20.45
2023-02-19T05:18:19.745Z,18.48
2023-02-19T05:20:52.860Z,22.87
2023-02-19T05:23:24.101Z,22.17
2023-02-19T05:25:55.532Z,17.17
2023-02-19T05:28:30.599Z,17.70
2023-02-19T05:31:09.042Z,19.55
2023-02-19T05:33:38.428Z,16.67
2023-02-19T05:36:13.273Z,16.65
2023-02-19T05:38:47.042Z,17.10
2023-02-19T05:41:20.422Z,18.15
2023-02-19T05:43:52.737Z,17.98
2023-02-19T05:46:26.698Z,18.25
2023-02-19T05:48:57.986Z,17.25
2023-02-19T05:51:30.121Z,16.95
2023-02-19T05:54:02.062Z,17.82
2023-02-19T05:56:42.442Z,19.70
2023-02-19T05:59:24.572Z,15.93
2023-02-19T06:02:03.606Z,17.25
2023-02-19T06:04:34.740Z,15.85
2023-02-19T06:07:09.780Z,16.57
2023-02-19T06:10:10.830Z,18.40
2023-02-19T06:12:21.685Z,21.52
2023-02-19T06:14:52.908Z,17.45
2023-02-19T06:17:24.759Z,16.17
2023-02-19T06:19:56.136Z,16.85
2023-02-19T06:22:34.565Z,15.95
2023-02-19T06:25:05.873Z,20.27
2023-02-19T06:27:38.619Z,16.52
2023-02-19T06:30:11.753Z,14.70
2023-02-19T06:32:42.805Z,15.10
2023-02-19T06:35:14.248Z,16.67
2023-02-19T06:37:45.184Z,16.50
2023-02-19T06:40:16.317Z,15.78
2023-02-19T06:42:48.986Z,15.85
2023-02-19T06:45:20.162Z,15.78
2023-02-19T06:47:55.450Z,15.53
2023-02-19T06:50:26.555Z,15.15
2023-02-19T06:52:57.514Z,15.40
2023-02-19T06:55:28.606Z,14.35
2023-02-19T06:57:59.813Z,17.67
2023-02-19T07:00:30.898Z,16.57
2023-02-19T07:03:03.875Z,16.37
2023-02-19T07:05:34.455Z,14.13
2023-02-19T07:08:05.826Z,15.98
2023-02-19T07:10:36.942Z,15.53
2023-02-19T07:13:08.191Z,16.23
2023-02-19T07:15:39.348Z,13.65
2023-02-19T07:18:11.715Z,14.28
2023-02-19T07:20:42.981Z,14.55
2023-02-19T07:23:14.466Z,17.45
2023-02-19T07:25:45.959Z,14.30
2023-02-19T07:28:17.503Z,13.62
2023-02-19T07:30:49.177Z,15.32
2023-02-19T07:33:20.530Z,15.58
2023-02-19T07:35:52.554Z,16.15
2023-02-19T07:38:24.921Z,15.98
2023-02-19T07:41:00.184Z,14.73
2023-02-19T07:43:33.313Z,14.60
2023-02-19T07:46:12.813Z,16.12
2023-02-19T07:48:46.084Z,18.55
2023-02-19T07:51:20.084Z,16.87
2023-02-19T07:54:12.190Z,15.20
2023-02-19T07:56:43.441Z,16.27
2023-02-19T07:59:15.546Z,14.23
2023-02-19T08:02:03.910Z,14.68
2023-02-19T08:04:34.986Z,14.58
2023-02-19T08:07:06.694Z,14.18
2023-02-19T08:09:37.822Z,13.83
2023-02-19T08:12:27.056Z,14.60
2023-02-19T08:14:59.259Z,14.63
2023-02-19T08:17:31.271Z,15.50
2023-02-19T08:20:02.426Z,12.95
2023-02-19T08:22:33.983Z,12.65
2023-02-19T08:25:11.348Z,12.30
2023-02-19T08:27:42.816Z,14.10
2023-02-19T08:30:14.866Z,15.35
2023-02-19T08:32:46.447Z,15.55
2023-02-19T08:35:17.812Z,13.15
2023-02-19T08:37:48.844Z,16.15
2023-02-19T08:40:20.309Z,17.57
2023-02-19T08:42:51.895Z,13.00
2023-02-19T08:45:24.677Z,11.97
2023-02-19T08:47:55.813Z,14.47
2023-02-19T08:50:33.458Z,14.25
2023-02-19T08:53:05.293Z,13.05
2023-02-19T08:55:36.615Z,12.45
2023-02-19T08:58:08.212Z,15.20
2023-02-19T09:00:39.722Z,14.50
2023-02-19T09:03:11.022Z,13.83
2023-02-19T09:05:42.940Z,15.85
2023-02-19T09:08:14.026Z,17.07
2023-02-19T09:10:45.428Z,14.45
2023-02-19T09:13:17.013Z,14.18
2023-02-19T09:15:48.245Z,15.90
2023-02-19T09:18:21.039Z,13.85
2023-02-19T09:20:52.316Z,13.58
2023-02-19T09:23:23.457Z,17.82
2023-02-19T09:26:02.328Z,12.88
2023-02-19T09:28:34.976Z,12.43
2023-02-19T09:31:10.245Z,16.12
2023-02-19T09:33:43.042Z,13.90
2023-02-19T09:36:16.242Z,14.80
2023-02-19T09:38:49.889Z,11.45
2023-02-19T09:41:32.015Z,17.25
2023-02-19T09:44:05.248Z,12.25
2023-02-19T09:46:50.682Z,14.60
2023-02-19T09:49:26.956Z,12.73
2023-02-19T09:52:12.560Z,14.28
2023-02-19T09:54:45.471Z,19.12
2023-02-19T09:57:26.624Z,12.40
2023-02-19T10:00:18.139Z,14.07
2023-02-19T10:02:49.286Z,17.73
2023-02-19T10:05:20.461Z,15.13
2023-02-19T10:07:54.062Z,15.03
2023-02-19T10:10:37.092Z,20.37
2023-02-19T10:13:25.737Z,22.13
2023-02-19T10:15:59.721Z,16.75
2023-02-19T10:18:33.862Z,16.37
2023-02-19T10:21:06.534Z,15.32
2023-02-19T10:23:40.116Z,12.82
2023-02-19T10:26:16.103Z,14.55
2023-02-19T10:28:47.121Z,12.85
2023-02-19T10:31:28.503Z,15.70
2023-02-19T10:34:02.713Z,14.03
2023-02-19T10:36:41.766Z,15.30
2023-02-19T10:39:29.980Z,14.18
2023-02-19T10:42:05.255Z,13.62
2023-02-19T10:44:38.142Z,15.32
2023-02-19T10:47:09.403Z,17.10
2023-02-19T10:49:44.883Z,15.30
2023-02-19T10:52:33.222Z,17.73
2023-02-19T10:55:24.398Z,14.73
2023-02-19T10:58:06.885Z,15.90
2023-02-19T11:00:32.928Z,14.58
2023-02-19T11:03:25.191Z,14.93
2023-02-19T11:06:07.321Z,17.10
2023-02-19T11:08:49.210Z,17.77
2023-02-19T11:11:32.374Z,15.50
2023-02-19T11:14:06.364Z,15.93
2023-02-19T11:16:45.629Z,13.10
2023-02-19T11:19:34.161Z,13.70
2023-02-19T11:22:05.589Z,12.25
2023-02-19T11:24:44.459Z,13.72
2023-02-19T11:27:24.207Z,13.15
2023-02-19T11:29:55.186Z,15.10
2023-02-19T11:32:28.433Z,13.55
2023-02-19T11:35:23.716Z,15.32
2023-02-19T11:38:01.205Z,19.17
2023-02-19T11:40:36.975Z,17.80
2023-02-19T11:43:32.565Z,13.27
2023-02-19T11:46:17.937Z,11.97
2023-02-19T11:48:59.617Z,17.85
2023-02-19T11:51:52.735Z,12.60
2023-02-19T11:54:47.152Z,14.83
2023-02-19T11:57:26.792Z,10.60
2023-02-19T12:00:07.563Z,9.78
2023-02-19T12:02:45.050Z,10.82
2023-02-19T12:05:30.853Z,8.75
2023-02-19T12:08:04.171Z,11.25
2023-02-19T12:10:55.896Z,13.43
2023-02-19T12:13:32.368Z,10.38
2023-02-19T12:16:26.987Z,13.53
2023-02-19T12:19:23.077Z,9.75
2023-02-19T12:22:06.522Z,10.08
2023-02-19T12:25:05.741Z,11.12
2023-02-19T12:27:58.017Z,19.10
2023-02-19T12:30:34.273Z,14.25
2023-02-19T12:33:26.795Z,22.40
2023-02-19T12:36:18.448Z,9.55
2023-02-19T12:39:11.599Z,12.45
2023-02-19T12:41:44.853Z,12.00
2023-02-19T12:44:21.020Z,11.65
2023-02-19T12:46:57.074Z,10.65
2023-02-19T12:49:36.170Z,11.73
2023-02-19T12:52:15.070Z,12.13
2023-02-19T12:54:48.565Z,12.13
2023-02-19T12:57:22.028Z,10.18
2023-02-19T12:59:58.210Z,16.00
2023-02-19T13:02:52.781Z,12.23
2023-02-19T13:05:44.314Z,12.05
2023-02-19T13:08:19.974Z,12.15
2023-02-19T13:10:56.301Z,10.80
2023-02-19T13:13:32.251Z,10.72
2023-02-19T13:16:18.190Z,11.73
2023-02-19T13:18:55.794Z,14.73
2023-02-19T13:21:45.995Z,11.48
2023-02-19T13:24:38.412Z,11.05
2023-02-19T13:27:18.552Z,9.23
2023-02-19T13:30:13.144Z,18.25
2023-02-19T13:32:55.872Z,9.83
2023-02-19T13:36:10.046Z,12.43
2023-02-19T13:38:28.837Z,11.08
2023-02-19T13:41:02.286Z,10.90
2023-02-19T13:43:43.996Z,10.15
2023-02-19T13:46:19.007Z,10.63
2023-02-19T13:48:50.064Z,9.98
2023-02-19T13:51:23.462Z,10.30
2023-02-19T13:54:02.061Z,14.30
2023-02-19T13:56:38.774Z,8.63
2023-02-19T14:02:01.750Z,13.78
2023-02-19T14:04:44.089Z,9.45
2023-02-19T14:07:17.429Z,10.78
2023-02-19T14:09:51.905Z,12.20
2023-02-19T14:12:27.096Z,13.32
2023-02-19T14:15:05.164Z,11.48
2023-02-19T14:17:41.321Z,12.47
2023-02-19T14:20:38.804Z,10.93
2023-02-19T14:23:17.913Z,11.22
2023-02-19T14:25:56.138Z,12.00
2023-02-19T14:28:35.835Z,12.05
2023-02-19T14:31:11.961Z,10.72
2023-02-19T14:33:51.375Z,13.20
2023-02-19T14:36:51.391Z,11.90
2023-02-19T14:39:30.564Z,17.98
2023-02-19T14:42:04.813Z,15.60
2023-02-19T14:45:04.446Z,11.55
2023-02-19T14:47:36.567Z,14.60
2023-02-19T14:50:12.521Z,13.35
2023-02-19T14:52:48.833Z,16.73
2023-02-19T14:55:31.197Z,19.17
2023-02-19T14:58:11.562Z,17.77
2023-02-19T15:00:44.750Z,17.20
2023-02-19T15:03:33.241Z,12.70
2023-02-19T15:06:13.605Z,13.15
2023-02-19T15:08:52.837Z,13.35
2023-02-19T15:11:28.392Z,11.65
2023-02-19T15:14:05.537Z,12.37
2023-02-19T15:16:39.771Z,11.38
2023-02-19T15:19:12.078Z,15.23
2023-02-19T15:21:49.611Z,12.68
2023-02-19T15:26:56.431Z,12.82
2023-02-19T15:29:32.597Z,11.80
2023-02-19T15:32:08.220Z,10.82
2023-02-19T15:34:39.326Z,11.85
2023-02-19T15:37:12.639Z,10.32
2023-02-19T15:39:59.426Z,11.65
2023-02-19T15:42:32.846Z,10.43
2023-02-19T15:45:13.426Z,10.45
2023-02-19T15:47:58.560Z,9.98
2023-02-19T15:50:35.169Z,15.65
2023-02-19T15:53:14.191Z,11.65
2023-02-19T15:55:50.385Z,11.70
2023-02-19T15:58:46.567Z,14.18
2023-02-19T16:01:42.459Z,12.50
2023-02-19T16:04:15.655Z,13.30
2023-02-19T16:07:00.984Z,12.10
2023-02-19T16:09:34.414Z,13.43
2023-02-19T16:12:07.399Z,11.35
2023-02-19T16:14:39.699Z,12.58
2023-02-19T16:17:15.549Z,14.07
2023-02-19T16:20:03.579Z,10.80
2023-02-19T16:26:52.126Z,16.67
2023-02-19T16:29:28.796Z,12.05
2023-02-19T16:32:07.920Z,15.93
2023-02-19T16:34:53.312Z,13.30
2023-02-19T16:37:45.483Z,11.22
2023-02-19T16:40:38.271Z,15.15
2023-02-19T16:43:19.717Z,12.50
2023-02-19T16:46:20.600Z,12.33
2023-02-19T16:48:54.909Z,13.05
2023-02-19T16:51:34.056Z,12.53
2023-02-19T16:54:11.610Z,13.62
2023-02-19T16:56:46.084Z,14.23
2023-02-19T16:59:16.967Z,12.90
2023-02-19T17:01:47.914Z,16.95
2023-02-19T17:04:18.934Z,11.35
2023-02-19T17:06:50.406Z,14.73
2023-02-19T17:09:21.312Z,11.03
2023-02-19T17:11:52.710Z,13.03
2023-02-19T17:14:23.785Z,15.48
2023-02-19T17:16:54.534Z,13.58
2023-02-19T17:19:25.233Z,13.25
2023-02-19T17:21:56.063Z,16.55
2023-02-19T17:24:26.980Z,16.23
2023-02-19T17:26:57.800Z,14.98
2023-02-19T17:29:29.679Z,14.90
2023-02-19T17:32:00.448Z,13.83
2023-02-19T17:34:31.178Z,14.85
2023-02-19T17:37:02.070Z,17.65
2023-02-19T17:39:32.801Z,12.37
2023-02-19T17:42:03.538Z,14.55
2023-02-19T17:44:34.574Z,14.35
2023-02-19T17:47:05.553Z,14.50
2023-02-19T17:49:37.580Z,13.83
2023-02-19T17:52:11.535Z,16.10
2023-02-19T17:54:41.157Z,15.53
2023-02-19T17:57:11.956Z,16.52
2023-02-19T17:59:42.672Z,20.65
2023-02-19T18:02:13.503Z,16.35
2023-02-19T18:04:44.375Z,13.78
2023-02-19T18:07:18.155Z,14.68
2023-02-19T18:09:51.928Z,16.23
2023-02-19T18:12:22.747Z,16.45
2023-02-19T18:14:55.462Z,14.60
2023-02-19T18:17:27.366Z,14.25
2023-02-19T18:19:58.952Z,14.53
2023-02-19T18:22:29.756Z,15.32
2023-02-19T18:25:01.746Z,14.87
2023-02-19T18:27:32.560Z,15.60
2023-02-19T18:30:03.998Z,17.05
2023-02-19T18:32:34.868Z,15.48
2023-02-19T18:35:09.231Z,16.90
2023-02-19T18:37:40.156Z,16.15
2023-02-19T18:40:13.385Z,16.73
2023-02-19T18:42:44.406Z,17.85
2023-02-19T18:45:15.449Z,17.27
2023-02-19T18:47:50.576Z,16.65
2023-02-19T18:50:23.011Z,17.52
2023-02-19T18:52:53.723Z,14.85
2023-02-19T18:55:24.538Z,17.95
2023-02-19T18:57:55.261Z,17.30
2023-02-19T19:00:27.842Z,15.88
2023-02-19T19:03:00.552Z,17.75
2023-02-19T19:05:33.008Z,18.48
2023-02-19T19:08:03.799Z,16.90
2023-02-19T19:10:34.526Z,15.50
2023-02-19T19:13:05.445Z,19.95
2023-02-19T19:15:36.535Z,19.92
2023-02-19T19:18:07.969Z,18.37
2023-02-19T19:20:38.648Z,14.25
2023-02-19T19:23:09.419Z,16.40
2023-02-19T19:25:40.748Z,19.67
2023-02-19T19:28:11.539Z,20.05
2023-02-19T19:30:43.668Z,19.17
2023-02-19T19:33:14.716Z,18.50
2023-02-19T19:35:45.516Z,14.68
2023-02-19T19:38:16.340Z,22.58
2023-02-19T19:40:47.236Z,16.45
2023-02-19T19:43:18.246Z,17.07
2023-02-19T19:45:49.054Z,18.67
2023-02-19T19:48:19.866Z,18.75
2023-02-19T19:50:50.898Z,19.15
2023-02-19T19:53:22.127Z,16.10
2023-02-19T19:55:52.990Z,15.85
2023-02-19T19:58:25.206Z,19.55
2023-02-19T20:00:56.224Z,15.83
2023-02-19T20:03:27.152Z,17.87
2023-02-19T20:05:58.495Z,17.90
2023-02-19T20:08:29.290Z,19.25
2023-02-19T20:11:00.116Z,18.67
2023-02-19T20:13:31.604Z,20.75
2023-02-19T20:16:02.501Z,18.02
2023-02-19T20:18:33.240Z,17.70
2023-02-19T20:21:04.711Z,18.37
2023-02-19T20:23:35.503Z,21.68
2023-02-19T20:26:06.526Z,19.02
2023-02-19T20:28:37.325Z,19.90
2023-02-19T20:31:12.253Z,16.65
2023-02-19T20:33:43.346Z,22.00
2023-02-19T20:36:14.151Z,18.30
2023-02-19T20:38:45.038Z,18.80
2023-02-19T20:41:16.043Z,20.45
2023-02-19T20:43:46.855Z,18.17
2023-02-19T20:46:17.569Z,20.27
2023-02-19T20:48:49.900Z,21.60
2023-02-19T20:51:20.672Z,17.30
2023-02-19T20:53:51.535Z,18.35
2023-02-19T20:56:22.546Z,17.37
2023-02-19T20:58:54.059Z,19.85
2023-02-19T21:01:29.299Z,21.00
2023-02-19T21:04:00.477Z,17.42
2023-02-19T21:06:31.393Z,21.17
2023-02-19T21:09:02.374Z,21.25
2023-02-19T21:11:33.316Z,19.98
2023-02-19T21:14:04.219Z,20.62
2023-02-19T21:16:35.427Z,21.02
2023-02-19T21:19:06.338Z,18.80
2023-02-19T21:21:37.034Z,19.05
2023-02-19T21:24:08.415Z,18.82
2023-02-19T21:26:40.995Z,19.20
2023-02-19T21:31:30.021Z,21.30
2023-02-19T21:31:57.073Z,21.48
2023-02-19T21:34:30.247Z,22.30
2023-02-19T21:37:01.024Z,26.23
2023-02-19T21:39:33.460Z,21.65
2023-02-19T21:42:05.016Z,25.77
2023-02-19T21:44:36.017Z,25.88
2023-02-19T21:47:06.930Z,23.80
2023-02-19T21:49:37.735Z,23.25
2023-02-19T21:52:08.575Z,21.23
2023-02-19T21:54:39.505Z,24.12
2023-02-19T21:57:10.533Z,21.45
2023-02-19T21:59:41.430Z,25.00
2023-02-19T22:02:12.658Z,24.20
2023-02-19T22:04:43.341Z,27.07
2023-02-19T22:07:14.058Z,24.05
2023-02-19T22:09:44.899Z,26.60
2023-02-19T22:12:15.716Z,21.97
2023-02-19T22:14:46.517Z,21.87
2023-02-19T22:17:17.427Z,21.30
2023-02-19T22:19:48.340Z,21.97
2023-02-19T22:22:19.263Z,25.52
2023-02-19T22:24:50.084Z,26.15
2023-02-19T22:27:20.769Z,25.57
2023-02-19T22:29:51.669Z,25.23
2023-02-19T22:32:22.607Z,26.33
2023-02-19T22:34:53.448Z,25.65
2023-02-19T22:37:24.242Z,28.65
2023-02-19T22:39:55.034Z,26.25
2023-02-19T22:42:26.549Z,25.12
2023-02-19T22:45:01.383Z,26.23
2023-02-19T22:47:32.323Z,28.87
2023-02-19T22:50:03.317Z,25.68
2023-02-19T22:52:34.021Z,23.85
2023-02-19T22:55:04.912Z,24.52
2023-02-19T22:57:36.880Z,27.17
2023-02-19T23:00:09.452Z,28.15
2023-02-19T23:02:40.305Z,34.60
2023-02-19T23:05:11.881Z,32.85
2023-02-19T23:07:47.050Z,35.40
2023-02-19T23:10:18.164Z,31.27
2023-02-19T23:12:49.149Z,33.65
2023-02-19T23:15:20.153Z,30.05
2023-02-19T23:17:50.854Z,31.45
2023-02-19T23:20:21.781Z,26.40
2023-02-19T23:22:52.578Z,26.97
2023-02-19T23:25:23.455Z,33.50
2023-02-19T23:27:54.271Z,24.30
2023-02-19T23:30:25.421Z,28.45
2023-02-19T23:32:56.227Z,29.77
2023-02-19T23:35:27.032Z,30.70
2023-02-19T23:37:57.775Z,28.38
2023-02-19T23:40:28.474Z,23.47
2023-02-19T23:42:59.292Z,33.35
2023-02-19T23:45:31.043Z,30.70
2023-02-19T23:48:01.930Z,29.72
2023-02-19T23:50:32.636Z,30.55
2023-02-19T23:53:03.843Z,31.60
2023-02-19T23:55:34.624Z,25.02
2023-02-19T23:58:05.958Z,30.08
